Time;durP1;ratioP1;P1;durP2;ratioP2;P2;SDS_P1;SDS_P2;PMS_P1;PMS_P2;Temp;Humidity;BMP_temperature;BMP_pressure;BME280_temperature;BME280_humidity;BME280_pressure;Samples;Min_cycle;Max_cycle;Signal;HPM_P1;HPM_P2
2022/05/13 00:00:44;;;;;;;6.03;2.22;;;;;;;;;;5036395;28;20204;-58
2022/05/13 00:03:11;;;;;;;8.65;1.88;;;;;;;;;;5036391;28;20208;-57
2022/05/13 00:05:38;;;;;;;5.80;2.05;;;;;;;;;;5036341;28;20212;-57
2022/05/13 00:08:05;;;;;;;5.15;2.22;;;;;;;;;;5036110;28;20583;-57
2022/05/13 00:10:33;;;;;;;7.38;2.00;;;;;;;;;;5035932;28;20201;-56
2022/05/13 00:12:59;;;;;;;6.32;2.33;;;;;;;;;;5036058;28;20266;-57
2022/05/13 00:15:29;;;;;;;9.20;2.10;;;;;;;;;;5036163;28;20200;-58
2022/05/13 00:17:56;;;;;;;11.48;2.20;;;;;;;;;;5036223;28;20362;-57
2022/05/13 00:20:24;;;;;;;6.07;2.08;;;;;;;;;;5035794;28;20216;-57
2022/05/13 00:22:54;;;;;;;8.35;1.98;;;;;;;;;;5036237;28;20205;-58
2022/05/13 00:25:26;;;;;;;5.65;2.33;;;;;;;;;;5035961;28;20205;-58
2022/05/13 00:27:55;;;;;;;7.65;2.65;;;;;;;;;;5035662;28;20262;-57
2022/05/13 00:30:22;;;;;;;6.60;2.38;;;;;;;;;;5035503;28;20263;-57
2022/05/13 00:32:50;;;;;;;5.32;2.17;;;;;;;;;;5035822;28;20258;-58
2022/05/13 00:35:19;;;;;;;7.45;2.30;;;;;;;;;;5035474;28;20655;-58
2022/05/13 00:37:46;;;;;;;9.50;2.72;;;;;;;;;;5035606;28;20726;-58
2022/05/13 00:40:14;;;;;;;3.80;2.20;;;;;;;;;;5035467;28;20222;-57
2022/05/13 00:42:43;;;;;;;8.43;2.25;;;;;;;;;;5034954;28;20255;-58
2022/05/13 00:45:13;;;;;;;7.10;2.10;;;;;;;;;;5035577;28;20201;-58
2022/05/13 00:47:41;;;;;;;6.03;2.30;;;;;;;;;;5035447;28;20204;-57
2022/05/13 00:50:10;;;;;;;7.80;2.40;;;;;;;;;;5034639;28;20213;-58
2022/05/13 00:52:41;;;;;;;4.38;2.17;;;;;;;;;;5034476;28;20570;-58
2022/05/13 00:55:11;;;;;;;6.50;2.33;;;;;;;;;;5034502;28;20259;-57
2022/05/13 00:57:39;;;;;;;5.55;2.13;;;;;;;;;;5034996;28;20290;-58
2022/05/13 01:00:11;;;;;;;7.95;2.53;;;;;;;;;;5035143;28;20239;-58
2022/05/13 01:02:43;;;;;;;7.38;2.15;;;;;;;;;;5035375;28;20208;-58
2022/05/13 01:05:12;;;;;;;12.23;2.47;;;;;;;;;;5035470;28;20200;-56
2022/05/13 01:07:40;;;;;;;3.92;2.15;;;;;;;;;;5034965;28;20555;-57
2022/05/13 01:10:13;;;;;;;6.28;2.33;;;;;;;;;;5034907;28;20258;-57
2022/05/13 01:12:42;;;;;;;4.82;2.33;;;;;;;;;;5034387;28;20189;-58
2022/05/13 01:15:12;;;;;;;6.93;2.47;;;;;;;;;;5034101;28;20270;-58
2022/05/13 01:20:30;;;;;;;8.10;1.88;;;;;;;;;;5035064;28;20208;-58
2022/05/13 01:23:00;;;;;;;4.30;1.98;;;;;;;;;;5035058;28;20283;-58
2022/05/13 01:25:33;;;;;;;6.32;2.10;;;;;;;;;;5035578;28;20217;-58
2022/05/13 01:28:13;;;;;;;8.00;2.17;;;;;;;;;;5034720;28;20196;-58
2022/05/13 01:30:45;;;;;;;7.15;2.60;;;;;;;;;;5034946;28;20262;-58
2022/05/13 01:33:12;;;;;;;6.93;2.22;;;;;;;;;;5035087;28;20267;-57
2022/05/13 01:35:44;;;;;;;6.35;2.28;;;;;;;;;;5035031;28;20269;-58
2022/05/13 01:38:11;;;;;;;9.15;1.92;;;;;;;;;;5034724;28;20675;-57
2022/05/13 01:40:39;;;;;;;4.90;2.03;;;;;;;;;;5034740;28;20220;-58
2022/05/13 01:43:06;;;;;;;7.50;2.10;;;;;;;;;;5034826;28;20582;-57
2022/05/13 01:45:34;;;;;;;9.15;2.28;;;;;;;;;;5034752;28;20209;-58
2022/05/13 01:48:02;;;;;;;4.32;2.00;;;;;;;;;;5034785;28;20212;-58
2022/05/13 01:50:29;;;;;;;4.72;2.00;;;;;;;;;;5034803;28;20308;-57
2022/05/13 01:52:56;;;;;;;5.55;2.20;;;;;;;;;;5034985;28;20231;-58
2022/05/13 01:55:23;;;;;;;12.65;2.42;;;;;;;;;;5038609;28;20231;-58
2022/05/13 01:57:51;;;;;;;14.65;2.67;;;;;;;;;;5038362;28;20248;-58
2022/05/13 02:00:19;;;;;;;6.53;2.13;;;;;;;;;;5038682;28;20229;-58
2022/05/13 02:05:32;;;;;;;9.07;2.50;;;;;;;;;;5038395;28;20196;-58
2022/05/13 02:07:59;;;;;;;6.47;2.22;;;;;;;;;;5038236;28;20216;-58
2022/05/13 02:10:25;;;;;;;5.72;2.15;;;;;;;;;;5038260;28;20196;-57
2022/05/13 02:12:53;;;;;;;8.00;2.42;;;;;;;;;;5038139;28;20209;-57
2022/05/13 02:15:20;;;;;;;7.93;2.38;;;;;;;;;;5037877;28;20623;-58
2022/05/13 02:17:46;;;;;;;9.50;2.80;;;;;;;;;;5037832;28;20217;-58
2022/05/13 02:20:14;;;;;;;7.80;2.33;;;;;;;;;;5037890;28;20197;-57
2022/05/13 02:22:42;;;;;;;5.78;2.08;;;;;;;;;;5037690;28;20225;-58
2022/05/13 02:25:09;;;;;;;4.93;2.10;;;;;;;;;;5037689;28;20201;-57
2022/05/13 02:27:36;;;;;;;7.75;2.65;;;;;;;;;;5037957;28;20200;-57
2022/05/13 02:30:05;;;;;;;7.03;2.08;;;;;;;;;;5037859;28;20235;-58
2022/05/13 02:32:32;;;;;;;8.00;2.53;;;;;;;;;;5037095;28;20205;-57
2022/05/13 02:34:59;;;;;;;7.38;2.58;;;;;;;;;;5037623;28;20274;-57
2022/05/13 02:37:26;;;;;;;5.32;2.25;;;;;;;;;;5037770;28;20278;-57
2022/05/13 02:39:53;;;;;;;6.38;2.40;;;;;;;;;;5037521;28;20216;-57
2022/05/13 02:42:20;;;;;;;4.53;2.42;;;;;;;;;;5037618;28;20259;-58
2022/05/13 02:44:47;;;;;;;8.57;2.50;;;;;;;;;;5037569;28;20208;-57
2022/05/13 02:47:14;;;;;;;7.80;2.58;;;;;;;;;;5037424;28;20228;-57
2022/05/13 02:49:41;;;;;;;10.07;2.63;;;;;;;;;;5037338;28;20200;-59
2022/05/13 02:52:11;;;;;;;8.35;2.78;;;;;;;;;;5037344;28;20233;-57
2022/05/13 02:54:38;;;;;;;5.97;2.67;;;;;;;;;;5037509;28;20267;-58
2022/05/13 02:57:05;;;;;;;7.35;2.78;;;;;;;;;;5036398;28;20235;-57
2022/05/13 02:59:33;;;;;;;7.20;2.90;;;;;;;;;;5037224;28;20280;-58
2022/05/13 03:02:00;;;;;;;8.50;2.78;;;;;;;;;;5037380;28;20255;-56
2022/05/13 03:04:27;;;;;;;7.30;2.63;;;;;;;;;;5036752;28;20197;-57
2022/05/13 03:06:54;;;;;;;6.88;2.70;;;;;;;;;;5035843;28;20722;-57
2022/05/13 03:09:21;;;;;;;7.75;2.92;;;;;;;;;;5037124;28;20705;-58
2022/05/13 03:11:47;;;;;;;6.72;2.97;;;;;;;;;;5037113;28;20573;-58
2022/05/13 03:14:15;;;;;;;6.57;3.10;;;;;;;;;;5037068;28;20235;-58
2022/05/13 03:16:41;;;;;;;7.32;3.35;;;;;;;;;;5037587;28;20205;-58
2022/05/13 03:19:08;;;;;;;7.38;3.20;;;;;;;;;;5037113;28;20231;-58
2022/05/13 03:21:35;;;;;;;8.70;3.38;;;;;;;;;;5036884;28;20205;-57
2022/05/13 03:24:03;;;;;;;9.32;2.88;;;;;;;;;;5037145;28;20215;-58
2022/05/13 03:26:30;;;;;;;8.05;3.53;;;;;;;;;;5037295;28;20605;-58
2022/05/13 03:28:57;;;;;;;4.63;3.17;;;;;;;;;;5036930;28;20240;-57
2022/05/13 03:31:24;;;;;;;12.23;3.22;;;;;;;;;;5036172;28;20674;-58
2022/05/13 03:33:51;;;;;;;12.90;4.00;;;;;;;;;;5036691;28;20207;-57
2022/05/13 03:36:19;;;;;;;6.32;2.75;;;;;;;;;;5037050;28;20204;-58
2022/05/13 03:38:46;;;;;;;5.25;3.47;;;;;;;;;;5036891;28;20687;-56
2022/05/13 03:41:13;;;;;;;8.00;3.40;;;;;;;;;;5037013;28;20283;-59
2022/05/13 03:43:40;;;;;;;8.43;3.55;;;;;;;;;;5036673;28;20534;-58
2022/05/13 03:46:07;;;;;;;11.55;4.72;;;;;;;;;;5036682;28;20259;-57
2022/05/13 03:48:35;;;;;;;10.55;4.00;;;;;;;;;;5036896;28;20220;-58
2022/05/13 03:51:02;;;;;;;10.18;3.80;;;;;;;;;;5036504;28;20244;-57
2022/05/13 03:53:29;;;;;;;9.05;3.92;;;;;;;;;;5036508;28;20228;-57
2022/05/13 03:55:56;;;;;;;10.57;4.13;;;;;;;;;;5036333;28;20652;-57
2022/05/13 03:58:24;;;;;;;9.15;4.40;;;;;;;;;;5036219;28;20235;-57
2022/05/13 04:00:51;;;;;;;11.93;3.92;;;;;;;;;;5036323;28;20205;-56
2022/05/13 04:03:19;;;;;;;11.45;4.32;;;;;;;;;;5036404;28;20201;-57
2022/05/13 04:11:39;;;;;;;8.10;3.95;;;;;;;;;;5015106;28;20221;-58
2022/05/13 04:16:54;;;;;;;7.70;3.92;;;;;;;;;;5007280;28;20230;-59
2022/05/13 04:19:24;;;;;;;5.10;3.55;;;;;;;;;;5010326;28;20241;-58
2022/05/13 04:21:51;;;;;;;10.85;3.75;;;;;;;;;;5005563;28;20221;-58
2022/05/13 04:24:19;;;;;;;7.65;3.50;;;;;;;;;;5013129;28;20578;-58
2022/05/13 04:26:47;;;;;;;8.95;4.10;;;;;;;;;;5019583;28;20236;-57
2022/05/13 04:29:14;;;;;;;7.90;4.03;;;;;;;;;;5013297;28;20225;-57
2022/05/13 04:31:42;;;;;;;8.00;3.50;;;;;;;;;;5012891;28;20253;-57
2022/05/13 04:34:10;;;;;;;7.38;3.30;;;;;;;;;;5012978;28;20239;-59
2022/05/13 04:36:37;;;;;;;10.25;3.50;;;;;;;;;;5012969;28;20229;-57
2022/05/13 04:39:05;;;;;;;10.07;3.45;;;;;;;;;;5013149;28;20252;-58
2022/05/13 04:44:20;;;;;;;9.25;3.08;;;;;;;;;;5014717;28;20253;-57
2022/05/13 04:46:47;;;;;;;13.35;3.15;;;;;;;;;;5015204;28;20259;-57
2022/05/13 04:49:13;;;;;;;10.45;2.83;;;;;;;;;;5014919;28;20225;-57
2022/05/13 04:51:41;;;;;;;5.30;3.17;;;;;;;;;;5021853;28;20672;-58
2022/05/13 04:54:08;;;;;;;10.30;3.22;;;;;;;;;;5020799;28;20656;-57
2022/05/13 04:56:35;;;;;;;7.70;2.80;;;;;;;;;;5024306;28;20670;-58
2022/05/13 04:59:03;;;;;;;10.27;2.80;;;;;;;;;;5036080;28;20305;-57
2022/05/13 05:01:30;;;;;;;5.32;2.80;;;;;;;;;;5034425;28;20692;-58
2022/05/13 05:03:57;;;;;;;6.20;2.67;;;;;;;;;;5034677;28;20233;-57
2022/05/13 05:06:24;;;;;;;6.18;2.65;;;;;;;;;;5034284;28;20263;-57
2022/05/13 05:08:53;;;;;;;5.35;2.38;;;;;;;;;;5021644;28;20228;-58
2022/05/13 05:11:20;;;;;;;7.18;2.85;;;;;;;;;;5017302;28;20235;-59
2022/05/13 05:13:49;;;;;;;7.03;2.50;;;;;;;;;;5034074;28;20544;-57
2022/05/13 05:16:19;;;;;;;4.10;2.25;;;;;;;;;;5031112;28;20221;-58
2022/05/13 05:18:46;;;;;;;6.60;2.53;;;;;;;;;;5033835;28;20319;-57
2022/05/13 05:21:13;;;;;;;9.07;2.60;;;;;;;;;;5034276;28;20295;-57
2022/05/13 05:23:42;;;;;;;7.97;2.28;;;;;;;;;;5033517;28;20283;-57
2022/05/13 05:26:09;;;;;;;7.18;2.25;;;;;;;;;;5033226;28;20220;-57
2022/05/13 05:28:37;;;;;;;6.55;2.60;;;;;;;;;;5033342;28;20232;-58
2022/05/13 05:31:05;;;;;;;5.95;2.20;;;;;;;;;;5033433;28;20286;-57
2022/05/13 05:33:32;;;;;;;5.13;2.45;;;;;;;;;;5033364;28;20773;-58
2022/05/13 05:36:00;;;;;;;9.52;2.38;;;;;;;;;;5030816;28;20232;-58
2022/05/13 05:38:27;;;;;;;5.30;2.63;;;;;;;;;;5033003;28;20670;-58
2022/05/13 05:40:55;;;;;;;9.00;4.30;;;;;;;;;;5034302;28;20208;-58
2022/05/13 05:43:22;;;;;;;10.20;3.60;;;;;;;;;;5033923;28;20243;-57
2022/05/13 05:45:50;;;;;;;8.60;4.05;;;;;;;;;;5034086;28;20212;-56
2022/05/13 05:48:22;;;;;;;10.23;3.47;;;;;;;;;;5034038;28;20224;-57
2022/05/13 05:50:51;;;;;;;6.50;3.42;;;;;;;;;;5034684;28;20200;-57
2022/05/13 05:57:13;;;;;;;10.57;3.25;;;;;;;;;;5034399;28;20639;-57
2022/05/13 05:59:00;;;;;;;8.38;3.00;;;;;;;;;;5034931;28;20252;-58
2022/05/13 06:01:28;;;;;;;6.03;3.10;;;;;;;;;;5034400;28;20204;-57
2022/05/13 06:03:55;;;;;;;7.60;3.13;;;;;;;;;;5034416;28;20243;-58
2022/05/13 06:06:22;;;;;;;9.18;3.00;;;;;;;;;;5034639;28;20220;-58
2022/05/13 06:08:50;;;;;;;6.95;3.35;;;;;;;;;;5034622;28;20335;-58
2022/05/13 06:11:17;;;;;;;7.43;3.83;;;;;;;;;;5034079;28;20556;-58
2022/05/13 06:13:43;;;;;;;10.32;3.90;;;;;;;;;;5034602;28;20209;-57
2022/05/13 06:16:11;;;;;;;8.05;3.67;;;;;;;;;;5034377;28;20212;-57
2022/05/13 06:18:38;;;;;;;14.00;2.78;;;;;;;;;;5034663;28;20221;-57
2022/05/13 06:21:05;;;;;;;7.75;2.55;;;;;;;;;;5034863;28;20217;-58
2022/05/13 06:23:32;;;;;;;4.65;2.10;;;;;;;;;;5034566;28;20208;-58
2022/05/13 06:25:59;;;;;;;11.73;2.42;;;;;;;;;;5034373;28;20538;-58
2022/05/13 06:28:27;;;;;;;6.97;2.00;;;;;;;;;;5020212;28;20229;-58
2022/05/13 06:30:54;;;;;;;8.07;1.85;;;;;;;;;;5013694;28;20213;-58
2022/05/13 06:33:22;;;;;;;7.15;2.15;;;;;;;;;;5013712;28;20212;-58
2022/05/13 06:35:49;;;;;;;7.07;1.48;;;;;;;;;;5014898;28;20206;-57
2022/05/13 06:38:22;;;;;;;11.07;1.92;;;;;;;;;;5014470;28;20237;-58
2022/05/13 06:40:53;;;;;;;5.15;1.45;;;;;;;;;;5025186;28;20201;-57
2022/05/13 06:43:22;;;;;;;9.85;1.88;;;;;;;;;;5017997;28;20200;-58
2022/05/13 06:45:49;;;;;;;4.72;1.45;;;;;;;;;;5055956;28;20210;-58
2022/05/13 06:48:16;;;;;;;5.80;1.73;;;;;;;;;;5037902;28;20208;-57
2022/05/13 06:50:46;;;;;;;6.95;2.33;;;;;;;;;;5037359;28;20203;-58
2022/05/13 06:53:14;;;;;;;6.40;2.25;;;;;;;;;;5037846;28;20220;-57
2022/05/13 06:55:43;;;;;;;9.77;2.22;;;;;;;;;;5036667;28;20292;-57
2022/05/13 06:58:12;;;;;;;6.03;2.20;;;;;;;;;;5024781;28;20202;-57
2022/05/13 07:00:39;;;;;;;7.13;2.60;;;;;;;;;;5033711;28;20229;-57
2022/05/13 07:03:07;;;;;;;7.55;2.22;;;;;;;;;;5030899;28;20197;-57
2022/05/13 07:05:34;;;;;;;10.18;1.90;;;;;;;;;;5021787;28;20196;-57
2022/05/13 07:08:01;;;;;;;9.38;1.52;;;;;;;;;;5035235;28;20208;-57
2022/05/13 07:10:28;;;;;;;7.55;1.70;;;;;;;;;;5037098;28;20298;-58
2022/05/13 07:12:56;;;;;;;10.57;2.33;;;;;;;;;;5032896;28;20196;-57
2022/05/13 07:15:23;;;;;;;8.07;2.67;;;;;;;;;;5026233;28;20205;-58
2022/05/13 07:17:50;;;;;;;10.13;2.05;;;;;;;;;;5021019;28;20292;-58
2022/05/13 07:20:17;;;;;;;5.53;1.92;;;;;;;;;;5026641;28;20298;-57
2022/05/13 07:22:44;;;;;;;8.35;1.75;;;;;;;;;;5032961;28;20220;-57
2022/05/13 07:25:11;;;;;;;10.52;1.80;;;;;;;;;;5017055;28;20509;-58
2022/05/13 07:27:38;;;;;;;14.48;3.50;;;;;;;;;;5017288;28;20256;-57
2022/05/13 07:30:06;;;;;;;6.72;1.80;;;;;;;;;;5034043;28;20208;-57
2022/05/13 07:32:33;;;;;;;4.60;1.75;;;;;;;;;;5037171;28;20204;-57
2022/05/13 07:35:00;;;;;;;10.32;2.20;;;;;;;;;;5035995;28;20212;-56
2022/05/13 07:37:27;;;;;;;9.93;2.22;;;;;;;;;;5036727;28;20231;-57
2022/05/13 07:42:41;;;;;;;7.68;2.20;;;;;;;;;;5037046;28;20216;-57
2022/05/13 07:45:09;;;;;;;16.02;2.00;;;;;;;;;;5036817;28;20209;-57
2022/05/13 07:47:38;;;;;;;8.10;2.20;;;;;;;;;;5036476;28;20230;-56
2022/05/13 07:50:07;;;;;;;5.25;1.58;;;;;;;;;;5036418;28;20239;-57
2022/05/13 07:52:34;;;;;;;5.85;2.22;;;;;;;;;;5036936;28;20233;-57
2022/05/13 07:55:01;;;;;;;8.80;2.78;;;;;;;;;;5036677;28;20626;-57
2022/05/13 07:57:29;;;;;;;7.97;3.05;;;;;;;;;;5036541;28;20205;-57
2022/05/13 08:02:49;;;;;;;7.43;2.30;;;;;;;;;;5035580;28;20212;-58
2022/05/13 08:05:16;;;;;;;9.05;2.78;;;;;;;;;;5036165;28;20243;-58
2022/05/13 08:07:43;;;;;;;11.82;3.13;;;;;;;;;;5036354;28;20208;-58
2022/05/13 08:10:10;;;;;;;3.30;1.00;;;;;;;;;;5035175;28;20546;-57
2022/05/13 08:12:38;;;;;;;2.60;1.27;;;;;;;;;;5028088;28;20200;-57
2022/05/13 08:15:05;;;;;;;6.13;3.13;;;;;;;;;;5033777;28;20247;-58
2022/05/13 08:17:33;;;;;;;5.65;1.27;;;;;;;;;;5036232;28;20189;-57
2022/05/13 08:20:01;;;;;;;2.95;1.40;;;;;;;;;;5034041;28;20247;-58
2022/05/13 08:22:27;;;;;;;6.53;1.70;;;;;;;;;;5020168;28;20611;-57
2022/05/13 08:24:54;;;;;;;3.05;1.63;;;;;;;;;;5015980;28;20660;-58
2022/05/13 08:27:21;;;;;;;3.60;0.93;;;;;;;;;;5018704;28;20202;-58
2022/05/13 08:29:48;;;;;;;2.75;1.17;;;;;;;;;;5020093;28;20209;-58
2022/05/13 08:32:15;;;;;;;4.68;1.30;;;;;;;;;;5015691;28;20217;-57
2022/05/13 08:34:42;;;;;;;4.18;1.73;;;;;;;;;;5016982;28;20288;-58
2022/05/13 08:37:29;;;;;;;7.38;1.80;;;;;;;;;;5016028;28;20209;-57
2022/05/13 08:40:00;;;;;;;7.88;2.00;;;;;;;;;;5029594;28;20300;-57
2022/05/13 08:42:36;;;;;;;6.18;1.52;;;;;;;;;;5035017;28;20201;-57
2022/05/13 08:45:05;;;;;;;5.80;2.15;;;;;;;;;;5016055;28;20193;-57
2022/05/13 08:47:44;;;;;;;5.22;1.90;;;;;;;;;;5016139;28;20292;-58
2022/05/13 08:50:33;;;;;;;4.47;1.40;;;;;;;;;;5016558;28;20201;-57
2022/05/13 08:53:11;;;;;;;2.35;1.17;;;;;;;;;;5034524;28;20298;-57
2022/05/13 08:55:42;;;;;;;3.70;1.40;;;;;;;;;;5035871;28;20216;-57
2022/05/13 08:58:20;;;;;;;4.63;1.80;;;;;;;;;;5034629;28;20193;-57
2022/05/13 09:00:54;;;;;;;3.45;1.35;;;;;;;;;;5034177;28;20737;-57
2022/05/13 09:03:28;;;;;;;4.13;1.02;;;;;;;;;;5034936;28;20208;-57
2022/05/13 09:05:58;;;;;;;3.30;1.10;;;;;;;;;;5035491;28;20254;-57
2022/05/13 09:08:25;;;;;;;3.40;1.00;;;;;;;;;;5034976;28;20189;-57
2022/05/13 09:11:29;;;;;;;3.47;0.90;;;;;;;;;;5034300;28;20643;-57
2022/05/13 09:13:59;;;;;;;6.88;1.70;;;;;;;;;;5015565;28;20576;-57
2022/05/13 09:16:41;;;;;;;2.85;1.08;;;;;;;;;;5015717;28;20205;-57
2022/05/13 09:19:14;;;;;;;4.47;0.90;;;;;;;;;;5015531;28;20228;-57
2022/05/13 09:21:43;;;;;;;3.47;0.82;;;;;;;;;;5030446;28;20220;-57
2022/05/13 09:24:11;;;;;;;3.47;1.33;;;;;;;;;;5030744;28;20201;-57
2022/05/13 09:26:38;;;;;;;4.07;1.10;;;;;;;;;;5015429;28;20233;-56
2022/05/13 09:29:14;;;;;;;1.35;0.70;;;;;;;;;;5015409;28;20233;-57
2022/05/13 09:31:45;;;;;;;2.30;0.95;;;;;;;;;;5021815;28;20192;-57
2022/05/13 09:34:39;;;;;;;7.43;1.25;;;;;;;;;;5034974;28;20512;-57
2022/05/13 09:37:10;;;;;;;7.00;1.27;;;;;;;;;;5034885;28;20270;-57
2022/05/13 09:39:43;;;;;;;5.55;1.27;;;;;;;;;;5034714;28;20235;-57
2022/05/13 09:42:26;;;;;;;3.05;0.70;;;;;;;;;;5034759;28;20205;-57
2022/05/13 09:45:15;;;;;;;3.08;0.77;;;;;;;;;;5034657;28;20228;-57
2022/05/13 09:47:45;;;;;;;2.25;0.93;;;;;;;;;;5034844;28;20266;-57
2022/05/13 09:50:33;;;;;;;4.13;1.33;;;;;;;;;;5034721;28;20258;-57
2022/05/13 09:53:26;;;;;;;5.15;0.90;;;;;;;;;;5033595;28;20236;-57
2022/05/13 09:55:55;;;;;;;2.58;0.90;;;;;;;;;;5035121;28;20211;-57
2022/05/13 09:58:32;;;;;;;4.35;0.88;;;;;;;;;;5034388;28;20193;-56
2022/05/13 10:01:09;;;;;;;4.05;0.90;;;;;;;;;;5034512;28;20228;-57
2022/05/13 10:03:38;;;;;;;2.47;0.90;;;;;;;;;;5034960;28;20282;-57
2022/05/13 10:06:08;;;;;;;2.33;1.00;;;;;;;;;;5034316;28;20201;-57
2022/05/13 10:08:55;;;;;;;3.63;0.80;;;;;;;;;;5034531;28;20223;-57
2022/05/13 10:14:27;;;;;;;5.22;0.95;;;;;;;;;;5034810;28;20247;-57
2022/05/13 10:17:17;;;;;;;2.63;1.05;;;;;;;;;;5038095;28;20205;-58
2022/05/13 10:19:44;;;;;;;3.22;1.00;;;;;;;;;;5037922;28;20562;-57
2022/05/13 10:22:27;;;;;;;5.43;1.00;;;;;;;;;;5038000;28;20204;-57
2022/05/13 10:25:08;;;;;;;3.80;1.00;;;;;;;;;;5037849;28;20223;-57
2022/05/13 10:27:57;;;;;;;5.28;1.20;;;;;;;;;;5037515;28;20215;-57
2022/05/13 10:30:45;;;;;;;3.47;0.90;;;;;;;;;;5037096;28;20204;-57
2022/05/13 10:33:26;;;;;;;3.40;1.08;;;;;;;;;;5037288;28;20205;-56
2022/05/13 10:36:08;;;;;;;10.00;1.10;;;;;;;;;;5037169;28;20266;-56
2022/05/13 10:38:47;;;;;;;4.18;1.15;;;;;;;;;;5037926;28;20646;-57
2022/05/13 10:41:30;;;;;;;1.73;0.88;;;;;;;;;;5037960;28;20233;-57
2022/05/13 10:44:22;;;;;;;1.35;0.90;;;;;;;;;;5037228;28;20196;-57
2022/05/13 10:46:54;;;;;;;2.45;0.85;;;;;;;;;;5030697;28;20209;-57
2022/05/13 10:49:39;;;;;;;3.03;0.90;;;;;;;;;;5029862;28;20200;-57
2022/05/13 10:52:26;;;;;;;4.28;1.25;;;;;;;;;;5017009;28;20248;-57
2022/05/13 10:55:06;;;;;;;1.33;0.68;;;;;;;;;;5017850;28;20346;-57
2022/05/13 10:57:45;;;;;;;2.65;0.85;;;;;;;;;;5017665;28;20288;-57
2022/05/13 11:00:25;;;;;;;3.78;1.00;;;;;;;;;;5017636;28;20256;-57
2022/05/13 11:03:15;;;;;;;6.43;1.00;;;;;;;;;;5017087;28;20205;-57
2022/05/13 11:06:04;;;;;;;7.63;1.38;;;;;;;;;;5017122;28;20551;-57
2022/05/13 11:08:47;;;;;;;4.00;0.88;;;;;;;;;;5017455;28;20209;-57
2022/05/13 11:11:39;;;;;;;1.92;0.88;;;;;;;;;;5049694;28;20205;-57
2022/05/13 11:14:47;;;;;;;6.07;1.00;;;;;;;;;;5016635;28;20201;-57
2022/05/13 11:17:34;;;;;;;2.70;0.82;;;;;;;;;;4996452;28;20206;-57
2022/05/13 11:20:13;;;;;;;3.53;0.75;;;;;;;;;;4996061;28;20221;-57
2022/05/13 11:22:58;;;;;;;3.42;1.02;;;;;;;;;;4996592;28;20194;-58
2022/05/13 11:25:56;;;;;;;7.85;1.25;;;;;;;;;;4995962;28;20190;-57
2022/05/13 11:28:29;;;;;;;6.10;1.08;;;;;;;;;;4996137;28;20206;-57
2022/05/13 11:31:18;;;;;;;13.38;1.60;;;;;;;;;;4995902;28;20206;-57
2022/05/13 11:33:54;;;;;;;5.40;0.88;;;;;;;;;;4996002;28;20250;-57
2022/05/13 11:36:35;;;;;;;2.90;1.10;;;;;;;;;;4995942;28;20201;-55
2022/05/13 11:39:14;;;;;;;9.75;1.25;;;;;;;;;;4995904;28;20210;-57
2022/05/13 11:41:56;;;;;;;3.92;1.00;;;;;;;;;;4996209;28;20202;-57
2022/05/13 11:44:42;;;;;;;1.98;1.00;;;;;;;;;;5007612;28;20226;-55
2022/05/13 11:47:44;;;;;;;3.67;1.00;;;;;;;;;;5006869;28;20320;-57
2022/05/13 11:50:11;;;;;;;2.45;1.15;;;;;;;;;;5006484;28;20239;-57
2022/05/13 11:52:38;;;;;;;3.00;1.10;;;;;;;;;;5013387;28;20314;-57
2022/05/13 11:55:38;;;;;;;5.43;1.00;;;;;;;;;;5042824;28;20293;-57
2022/05/13 11:58:06;;;;;;;3.15;1.05;;;;;;;;;;5042466;28;20224;-59
2022/05/13 12:00:37;;;;;;;2.75;1.00;;;;;;;;;;5055823;28;20240;-58
2022/05/13 12:03:13;;;;;;;7.00;1.00;;;;;;;;;;5055567;28;20223;-60
2022/05/13 12:05:46;;;;;;;3.53;1.15;;;;;;;;;;5055578;28;20681;-57
2022/05/13 12:08:16;;;;;;;2.78;1.08;;;;;;;;;;5055825;28;20234;-56
2022/05/13 12:10:53;;;;;;;5.15;1.27;;;;;;;;;;5055805;28;20228;-58
2022/05/13 12:13:39;;;;;;;4.78;0.90;;;;;;;;;;5045435;28;20224;-58
2022/05/13 12:16:54;;;;;;;2.33;1.05;;;;;;;;;;5035305;28;20228;-58
2022/05/13 12:19:54;;;;;;;4.13;1.30;;;;;;;;;;4999249;28;20234;-58
2022/05/13 12:22:31;;;;;;;5.78;1.10;;;;;;;;;;5035740;28;20224;-58
2022/05/13 12:24:57;;;;;;;3.78;0.90;;;;;;;;;;5034941;28;20224;-57
2022/05/13 12:27:29;;;;;;;3.25;0.77;;;;;;;;;;5034656;28;20224;-58
2022/05/13 12:30:09;;;;;;;5.90;1.20;;;;;;;;;;5051848;28;20246;-57
2022/05/13 12:32:42;;;;;;;3.20;1.17;;;;;;;;;;5055313;28;20238;-58
2022/05/13 12:38:10;;;;;;;3.38;1.00;;;;;;;;;;5053957;28;20232;-58
2022/05/13 12:40:51;;;;;;;7.15;1.70;;;;;;;;;;5055138;28;20239;-57
2022/05/13 12:43:21;;;;;;;4.90;1.20;;;;;;;;;;5054371;28;20224;-57
2022/05/13 12:46:21;;;;;;;5.90;3.20;;;;;;;;;;5054775;28;20254;-57
2022/05/13 12:49:03;;;;;;;6.85;1.20;;;;;;;;;;4997006;28;20221;-57
2022/05/13 12:52:00;;;;;;;2.53;0.80;;;;;;;;;;5013162;28;20256;-58
2022/05/13 12:54:31;;;;;;;3.72;0.98;;;;;;;;;;5013166;28;20276;-57
2022/05/13 12:57:07;;;;;;;4.05;1.40;;;;;;;;;;5012484;28;20229;-58
2022/05/13 12:59:55;;;;;;;7.05;1.15;;;;;;;;;;4994903;28;20249;-59
2022/05/13 13:02:23;;;;;;;4.85;1.30;;;;;;;;;;4977162;28;20296;-59
2022/05/13 13:04:57;;;;;;;4.55;1.30;;;;;;;;;;4993124;28;20317;-59
2022/05/13 13:07:25;;;;;;;4.68;1.08;;;;;;;;;;4977681;28;20630;-59
2022/05/13 13:09:53;;;;;;;3.90;1.17;;;;;;;;;;4993067;28;20234;-58
2022/05/13 13:12:41;;;;;;;6.00;1.45;;;;;;;;;;4992954;28;20648;-58
2022/05/13 13:15:33;;;;;;;2.75;1.17;;;;;;;;;;4993210;28;20684;-58
2022/05/13 13:18:11;;;;;;;4.88;1.23;;;;;;;;;;4977076;28;20236;-60
2022/05/13 13:20:53;;;;;;;5.10;0.95;;;;;;;;;;4993098;28;20351;-58
2022/05/13 13:23:20;;;;;;;4.50;1.20;;;;;;;;;;4995771;28;20261;-58
2022/05/13 13:25:51;;;;;;;7.72;1.30;;;;;;;;;;5034139;28;20225;-57
2022/05/13 13:28:27;;;;;;;5.88;1.30;;;;;;;;;;5039005;28;20227;-59
2022/05/13 13:31:00;;;;;;;7.25;1.23;;;;;;;;;;5053908;28;20681;-50
2022/05/13 13:33:33;;;;;;;4.55;0.90;;;;;;;;;;5054105;28;20318;-44
2022/05/13 13:36:05;;;;;;;5.93;1.33;;;;;;;;;;5053957;28;20655;-55
2022/05/13 13:38:32;;;;;;;4.25;0.95;;;;;;;;;;5054237;28;20228;-52
2022/05/13 13:40:59;;;;;;;4.97;1.27;;;;;;;;;;5053753;28;20277;-51
2022/05/13 13:43:29;;;;;;;3.60;1.08;;;;;;;;;;5034017;28;20220;-56
2022/05/13 13:46:18;;;;;;;4.60;1.00;;;;;;;;;;5034001;28;20224;-48
2022/05/13 13:48:50;;;;;;;5.40;1.10;;;;;;;;;;5033802;28;20239;-57
2022/05/13 13:51:21;;;;;;;7.55;1.20;;;;;;;;;;5037072;28;20258;-44
2022/05/13 13:54:03;;;;;;;4.72;1.25;;;;;;;;;;5037206;28;20540;-45
2022/05/13 13:56:32;;;;;;;2.25;0.93;;;;;;;;;;5037539;28;20225;-46
2022/05/13 13:59:06;;;;;;;4.85;1.23;;;;;;;;;;5047429;28;20223;-47
2022/05/13 14:01:36;;;;;;;5.00;1.00;;;;;;;;;;5058022;28;20385;-50
2022/05/13 14:04:33;;;;;;;2.65;0.90;;;;;;;;;;5058054;28;20219;-56
2022/05/13 14:07:05;;;;;;;6.72;1.13;;;;;;;;;;5015798;28;20243;-53
2022/05/13 14:09:36;;;;;;;3.40;1.20;;;;;;;;;;5016400;28;20632;-56
2022/05/13 14:12:15;;;;;;;5.53;1.38;;;;;;;;;;5015359;28;20233;-55
2022/05/13 14:15:08;;;;;;;6.05;1.15;;;;;;;;;;5015986;28;20647;-53
2022/05/13 14:17:36;;;;;;;7.75;1.33;;;;;;;;;;5000102;28;20400;-54
2022/05/13 14:20:06;;;;;;;7.30;1.85;;;;;;;;;;4999990;28;20233;-55
2022/05/13 14:23:16;;;;;;;4.95;1.00;;;;;;;;;;5016302;28;20283;-54
2022/05/13 14:25:57;;;;;;;4.50;1.30;;;;;;;;;;5016005;28;20680;-56
2022/05/13 14:28:27;;;;;;;8.82;1.25;;;;;;;;;;5010355;28;20324;-51
2022/05/13 14:31:04;;;;;;;2.33;1.20;;;;;;;;;;4980263;28;20303;-55
2022/05/13 14:33:37;;;;;;;8.23;1.20;;;;;;;;;;4996493;28;20338;-53
2022/05/13 14:36:07;;;;;;;7.55;1.58;;;;;;;;;;4979733;28;20234;-58
2022/05/13 14:41:39;;;;;;;2.25;1.08;;;;;;;;;;4982057;28;20242;-57
2022/05/13 14:44:07;;;;;;;8.63;1.40;;;;;;;;;;5028024;28;20290;-55
2022/05/13 14:46:34;;;;;;;9.13;1.65;;;;;;;;;;5037057;28;20694;-56
2022/05/13 14:49:31;;;;;;;3.85;1.20;;;;;;;;;;5037289;28;20221;-58
2022/05/13 14:51:59;;;;;;;3.38;1.15;;;;;;;;;;5037056;28;20237;-56
2022/05/13 14:54:26;;;;;;;5.40;1.30;;;;;;;;;;5036471;28;20228;-58
2022/05/13 14:57:00;;;;;;;3.83;1.40;;;;;;;;;;5036368;28;20239;-57
2022/05/13 14:59:34;;;;;;;3.35;1.10;;;;;;;;;;5051308;28;20248;-56
2022/05/13 15:02:02;;;;;;;7.03;1.40;;;;;;;;;;5055927;28;20300;-58
2022/05/13 15:04:33;;;;;;;4.53;1.40;;;;;;;;;;5056828;28;20234;-61
2022/05/13 15:07:21;;;;;;;10.65;1.40;;;;;;;;;;5056531;28;20713;-58
2022/05/13 15:09:51;;;;;;;4.70;1.30;;;;;;;;;;5056586;28;20601;-58
2022/05/13 15:12:18;;;;;;;9.38;1.25;;;;;;;;;;5056029;28;20227;-59
2022/05/13 15:14:45;;;;;;;8.52;1.50;;;;;;;;;;5056699;28;20243;-51
2022/05/13 15:17:14;;;;;;;2.60;1.08;;;;;;;;;;5056488;28;20280;-57
2022/05/13 15:19:41;;;;;;;7.32;1.65;;;;;;;;;;5056509;28;20613;-62
2022/05/13 15:22:12;;;;;;;3.20;1.10;;;;;;;;;;5055948;28;20240;-54
2022/05/13 15:24:45;;;;;;;5.20;1.58;;;;;;;;;;5038030;28;20229;-59
2022/05/13 15:27:14;;;;;;;7.07;1.38;;;;;;;;;;5036383;28;20240;-59
2022/05/13 15:29:43;;;;;;;11.82;1.40;;;;;;;;;;5053057;28;20236;-49
2022/05/13 15:32:13;;;;;;;3.53;1.33;;;;;;;;;;5056857;28;20219;-56
2022/05/13 15:34:40;;;;;;;4.53;1.50;;;;;;;;;;5056952;28;20200;-60
2022/05/13 15:37:15;;;;;;;2.75;1.10;;;;;;;;;;5057224;28;20200;-60
2022/05/13 15:39:42;;;;;;;3.85;1.10;;;;;;;;;;5056820;28;20199;-57
2022/05/13 15:42:09;;;;;;;7.30;1.40;;;;;;;;;;5056753;28;20324;-53
2022/05/13 15:44:36;;;;;;;6.43;1.25;;;;;;;;;;5054727;28;20200;-58